Time;durP1;ratioP1;P1;durP2;ratioP2;P2;SDS_P1;SDS_P2;PMS_P1;PMS_P2;Temp;Humidity;BMP_temperature;BMP_pressure;BME280_temperature;BME280_humidity;BME280_pressure;Samples;Min_cycle;Max_cycle;Signal;HPM_P1;HPM_P2
2023/10/01 00:01:13;;;;;;;9.03;6.70;;;14.30;99.90;;;;;;5058839;28;20284;-80
2023/10/01 00:03:39;;;;;;;10.33;7.30;;;14.30;99.90;;;;;;5060053;28;20460;-81
2023/10/01 00:06:04;;;;;;;9.20;5.87;;;14.20;99.90;;;;;;5056470;28;20189;-81
2023/10/01 00:08:30;;;;;;;8.20;6.20;;;14.20;99.90;;;;;;5050477;28;20215;-80
2023/10/01 00:10:56;;;;;;;12.70;6.83;;;14.20;99.90;;;;;;5053199;28;20308;-79
2023/10/01 00:13:21;;;;;;;9.33;6.00;;;14.10;99.90;;;;;;5053822;28;20697;-80
2023/10/01 00:15:49;;;;;;;11.53;5.90;;;14.10;99.90;;;;;;5046948;28;20182;-80
2023/10/01 00:18:15;;;;;;;8.87;5.93;;;14.10;99.90;;;;;;5053846;28;20803;-79
2023/10/01 00:20:40;;;;;;;7.83;5.37;;;14.10;99.90;;;;;;5054429;28;20490;-79
2023/10/01 00:23:06;;;;;;;13.17;6.37;;;14.10;99.90;;;;;;5036359;28;20201;-79
2023/10/01 00:25:32;;;;;;;9.63;5.87;;;14.10;99.90;;;;;;5047900;28;20218;-79
2023/10/01 00:27:59;;;;;;;8.87;6.00;;;14.00;99.90;;;;;;5053064;28;20252;-79
2023/10/01 00:30:24;;;;;;;9.93;6.20;;;14.00;99.90;;;;;;5045704;28;20441;-79
2023/10/01 00:32:50;;;;;;;11.87;6.43;;;14.00;99.90;;;;;;5054460;28;20451;-80
2023/10/01 00:35:16;;;;;;;8.73;5.40;;;14.00;99.90;;;;;;5040159;28;20190;-79
2023/10/01 00:37:42;;;;;;;9.07;5.50;;;14.00;99.90;;;;;;5053639;28;20269;-79
2023/10/01 00:40:10;;;;;;;8.37;5.37;;;13.90;99.90;;;;;;5051939;28;20503;-80
2023/10/01 00:42:37;;;;;;;16.20;5.90;;;13.90;99.90;;;;;;5053475;28;20229;-79
2023/10/01 00:45:07;;;;;;;11.00;5.63;;;13.90;99.90;;;;;;5055424;28;20436;-80
2023/10/01 00:47:35;;;;;;;9.67;5.40;;;13.90;99.90;;;;;;5056879;28;20436;-80
2023/10/01 00:50:01;;;;;;;11.23;5.73;;;13.90;99.90;;;;;;5056189;28;20472;-81
2023/10/01 00:52:28;;;;;;;9.50;4.73;;;13.80;99.90;;;;;;5056317;28;20568;-81
2023/10/01 00:54:54;;;;;;;8.20;4.80;;;13.80;99.90;;;;;;5054364;28;20425;-80
2023/10/01 00:57:21;;;;;;;14.23;5.80;;;13.80;99.90;;;;;;5053504;28;20958;-80
2023/10/01 00:59:47;;;;;;;7.33;4.40;;;13.80;99.90;;;;;;5054480;28;20454;-81
2023/10/01 01:02:15;;;;;;;10.63;4.90;;;13.70;99.90;;;;;;5055521;28;20447;-80
2023/10/01 01:04:45;;;;;;;8.07;5.53;;;13.80;99.90;;;;;;5056045;28;20424;-79
2023/10/01 01:07:15;;;;;;;11.57;4.83;;;13.80;99.90;;;;;;5054701;28;20477;-81
2023/10/01 01:09:42;;;;;;;10.90;5.73;;;13.70;99.90;;;;;;5054114;28;21368;-80
2023/10/01 01:12:07;;;;;;;10.67;5.27;;;13.70;99.90;;;;;;5045032;28;20433;-80
2023/10/01 01:14:36;;;;;;;9.17;5.63;;;13.70;99.90;;;;;;5053932;28;20609;-81
2023/10/01 01:17:04;;;;;;;10.17;5.00;;;13.60;99.90;;;;;;5055121;28;20268;-80
2023/10/01 01:19:30;;;;;;;10.87;5.80;;;13.70;99.90;;;;;;5055836;28;20514;-79
2023/10/01 01:21:56;;;;;;;9.97;5.57;;;13.60;99.90;;;;;;5055972;28;20444;-80
2023/10/01 01:24:24;;;;;;;7.40;5.70;;;13.60;99.90;;;;;;5054407;28;20557;-80
2023/10/01 01:26:51;;;;;;;8.80;4.80;;;13.60;99.90;;;;;;5053922;28;20443;-80
2023/10/01 01:29:28;;;;;;;8.17;5.50;;;13.50;1.00;;;;;;5054046;28;20460;-80
2023/10/01 01:32:15;;;;;;;7.73;4.43;;;13.50;99.90;;;;;;5049002;28;20436;-81
2023/10/01 01:34:44;;;;;;;14.03;4.87;;;13.50;99.90;;;;;;5054601;28;20436;-81
2023/10/01 01:37:19;;;;;;;9.13;5.37;;;13.50;99.90;;;;;;5056621;28;20810;-81
2023/10/01 01:39:49;;;;;;;9.47;5.60;;;13.50;99.90;;;;;;5055364;28;20808;-78
2023/10/01 01:42:24;;;;;;;10.03;5.13;;;13.50;99.90;;;;;;5054732;28;20439;-81
2023/10/01 01:45:15;;;;;;;7.47;4.90;;;13.50;99.90;;;;;;5054919;28;20504;-80
2023/10/01 01:47:39;;;;;;;5.57;4.40;;;13.40;99.90;;;;;;5055205;28;20448;-81
2023/10/01 01:50:21;;;;;;;9.50;5.07;;;13.50;99.90;;;;;;5054223;28;20464;-79
2023/10/01 01:52:49;;;;;;;7.20;4.90;;;13.50;99.90;;;;;;5040458;28;20452;-80
2023/10/01 01:55:29;;;;;;;8.80;4.50;;;13.40;99.90;;;;;;5054876;28;20440;-80
2023/10/01 01:58:06;;;;;;;8.37;4.50;;;13.40;99.90;;;;;;5052325;28;20483;-80
2023/10/01 02:00:34;;;;;;;9.40;5.33;;;13.40;99.90;;;;;;5044774;28;20436;-79
2023/10/01 02:03:16;;;;;;;8.50;5.43;;;13.40;99.90;;;;;;5053099;28;20471;-80
2023/10/01 02:05:42;;;;;;;8.30;4.93;;;13.40;99.90;;;;;;5045436;28;20519;-81
2023/10/01 02:08:23;;;;;;;9.33;4.40;;;13.40;99.90;;;;;;5050522;28;20994;-80
2023/10/01 02:10:50;;;;;;;6.40;3.67;;;13.40;99.90;;;;;;5055640;28;20451;-81
2023/10/01 02:13:19;;;;;;;8.77;4.67;;;13.40;99.90;;;;;;5051934;28;20453;-79
2023/10/01 02:15:48;;;;;;;8.47;5.10;;;13.40;99.90;;;;;;5057459;28;20504;-81
2023/10/01 02:18:17;;;;;;;14.77;4.87;;;13.40;99.90;;;;;;5054617;28;20433;-82
2023/10/01 02:20:51;;;;;;;9.77;4.93;;;13.40;99.90;;;;;;5055814;28;20848;-81
2023/10/01 02:23:25;;;;;;;13.60;4.70;;;13.40;74.30;;;;;;5053629;28;20455;-80
2023/10/01 02:25:51;;;;;;;8.50;4.80;;;13.40;16.00;;;;;;5053265;28;20510;-80
2023/10/01 02:28:17;;;;;;;9.60;5.00;;;13.40;1.00;;;;;;5053516;28;20973;-80
2023/10/01 02:30:44;;;;;;;9.80;4.40;;;13.40;1.00;;;;;;5057066;28;20494;-80
2023/10/01 02:33:17;;;;;;;13.60;4.23;;;13.40;1.00;;;;;;5033527;28;20294;-80
2023/10/01 02:35:49;;;;;;;9.20;4.30;;;13.40;1.00;;;;;;5059274;28;20511;-81
2023/10/01 02:41:08;;;;;;;7.50;3.73;;;13.40;1.00;;;;;;5060284;28;20537;-81
2023/10/01 02:43:34;;;;;;;8.87;4.73;;;13.40;1.00;;;;;;5059650;28;20498;-79
2023/10/01 02:46:07;;;;;;;6.67;4.50;;;13.40;1.00;;;;;;5051669;28;20448;-81
2023/10/01 02:48:34;;;;;;;10.50;5.50;;;13.40;1.00;;;;;;5043230;28;20503;-81
2023/10/01 02:51:15;;;;;;;9.30;4.43;;;13.50;1.00;;;;;;5060576;28;20437;-82
2023/10/01 02:56:32;;;;;;;10.33;4.70;;;13.50;1.00;;;;;;5056752;28;20495;-81
2023/10/01 02:59:15;;;;;;;8.03;3.90;;;13.50;1.00;;;;;;5053165;28;20454;-81
2023/10/01 03:01:47;;;;;;;7.73;4.70;;;13.50;1.00;;;;;;5043837;28;20866;-81
2023/10/01 03:04:16;;;;;;;11.23;5.47;;;13.40;1.00;;;;;;5059736;28;20454;-81
2023/10/01 03:06:55;;;;;;;8.30;4.40;;;13.40;1.00;;;;;;5059318;28;20594;-81
2023/10/01 03:09:31;;;;;;;8.57;4.50;;;13.40;1.00;;;;;;5060933;28;20530;-79
2023/10/01 03:12:24;;;;;;;6.97;4.70;;;13.40;1.00;;;;;;5059040;28;20944;-80
2023/10/01 03:14:59;;;;;;;10.40;4.63;;;13.40;1.00;;;;;;5056996;28;20539;-80
2023/10/01 03:17:27;;;;;;;8.43;4.17;;;13.40;5.40;;;;;;5053962;28;20424;-80
2023/10/01 03:19:53;;;;;;;9.33;5.23;;;13.40;28.40;;;;;;5058411;28;20541;-80
2023/10/01 03:22:31;;;;;;;6.10;4.70;;;13.40;37.30;;;;;;5056878;28;21042;-81
2023/10/01 03:24:58;;;;;;;10.03;4.87;;;13.40;45.60;;;;;;5047653;28;20192;-80
2023/10/01 03:27:27;;;;;;;6.37;4.60;;;13.40;78.90;;;;;;5058500;28;20436;-80
2023/10/01 03:30:20;;;;;;;7.63;4.67;;;13.40;99.90;;;;;;5057290;28;20629;-80
2023/10/01 03:32:46;;;;;;;10.37;4.10;;;13.40;99.90;;;;;;5038791;28;20814;-80
2023/10/01 03:35:12;;;;;;;8.03;4.70;;;13.40;99.90;;;;;;5041192;28;20432;-81
2023/10/01 03:37:38;;;;;;;7.50;4.37;;;13.40;99.90;;;;;;5058227;28;20443;-81
2023/10/01 03:40:22;;;;;;;12.57;4.90;;;13.40;99.90;;;;;;5047233;28;20511;-80
2023/10/01 03:42:51;;;;;;;8.63;4.20;;;13.40;99.90;;;;;;5046334;28;20467;-81
2023/10/01 03:47:59;;;;;;;8.80;4.67;;;13.40;99.90;;;;;;5057294;28;20817;-80
2023/10/01 03:50:31;;;;;;;8.03;4.00;;;13.30;99.90;;;;;;5056139;28;20452;-80
2023/10/01 03:52:59;;;;;;;6.37;3.80;;;13.30;99.90;;;;;;5056463;28;20206;-80
2023/10/01 03:58:08;;;;;;;10.13;4.60;;;13.30;99.90;;;;;;5055456;28;20475;-81
2023/10/01 04:03:06;;;;;;;8.13;4.80;;;13.30;99.90;;;;;;5054089;28;20452;-80
2023/10/01 04:05:34;;;;;;;11.70;5.47;;;13.30;99.90;;;;;;5055954;28;20876;-80
2023/10/01 04:08:07;;;;;;;8.67;4.13;;;13.30;99.90;;;;;;5047555;28;20441;-81
2023/10/01 04:10:35;;;;;;;9.13;4.60;;;13.30;99.90;;;;;;5057454;28;21015;-80
2023/10/01 04:13:12;;;;;;;9.13;4.60;;;13.30;99.90;;;;;;5044335;28;20464;-81
2023/10/01 04:15:55;;;;;;;7.20;4.97;;;13.30;99.90;;;;;;5053849;28;20447;-80
2023/10/01 04:18:21;;;;;;;10.10;4.80;;;13.30;99.90;;;;;;5036990;28;20432;-79
2023/10/01 04:23:31;;;;;;;8.80;4.30;;;13.30;99.90;;;;;;5047425;28;20463;-80
2023/10/01 04:26:05;;;;;;;8.23;4.50;;;13.30;99.90;;;;;;5053131;28;21402;-80
2023/10/01 04:28:43;;;;;;;7.40;4.60;;;13.30;99.90;;;;;;5056149;28;20463;-81
2023/10/01 04:31:10;;;;;;;8.90;4.80;;;13.30;99.90;;;;;;5053887;28;20444;-78
2023/10/01 04:33:36;;;;;;;10.63;5.60;;;13.30;99.90;;;;;;5049590;28;20472;-81
2023/10/01 04:36:10;;;;;;;10.20;4.63;;;13.30;99.90;;;;;;5026884;28;20428;-81
2023/10/01 04:38:36;;;;;;;8.03;4.90;;;13.30;99.90;;;;;;5054736;28;20433;-81
2023/10/01 04:41:07;;;;;;;8.27;4.80;;;13.30;99.90;;;;;;5054159;28;20440;-81
2023/10/01 04:43:36;;;;;;;9.77;5.00;;;13.30;99.90;;;;;;5056493;28;20487;-81
2023/10/01 04:46:04;;;;;;;10.63;5.17;;;13.30;99.90;;;;;;5043817;28;20441;-81
2023/10/01 04:48:29;;;;;;;10.13;5.77;;;13.30;99.90;;;;;;5059055;28;20506;-80
2023/10/01 04:50:55;;;;;;;9.40;5.57;;;13.30;99.90;;;;;;5059199;28;20436;-78
2023/10/01 04:53:22;;;;;;;16.17;5.20;;;13.30;99.90;;;;;;5056301;28;20202;-80
2023/10/01 04:56:01;;;;;;;11.07;5.50;;;13.30;99.90;;;;;;5057734;28;20182;-80
2023/10/01 04:58:29;;;;;;;10.60;6.40;;;13.30;99.90;;;;;;5053656;28;20471;-80
2023/10/01 05:00:55;;;;;;;9.70;5.30;;;13.30;99.90;;;;;;5057481;28;20503;-81
2023/10/01 05:03:39;;;;;;;11.53;6.50;;;13.30;99.90;;;;;;5057788;28;20448;-81
2023/10/01 05:06:15;;;;;;;12.23;6.33;;;13.30;99.90;;;;;;5057794;28;20424;-80
2023/10/01 05:08:42;;;;;;;17.10;6.37;;;13.30;99.90;;;;;;5058739;28;20467;-81
2023/10/01 05:11:12;;;;;;;12.07;6.77;;;13.30;99.90;;;;;;5058323;28;20965;-81
2023/10/01 05:13:41;;;;;;;12.87;6.57;;;13.30;99.90;;;;;;5052253;28;20486;-80
2023/10/01 05:16:13;;;;;;;12.83;7.20;;;13.30;99.90;;;;;;5052582;28;20467;-81
2023/10/01 05:18:40;;;;;;;10.00;6.00;;;13.30;99.90;;;;;;5058209;28;20536;-81
2023/10/01 05:21:12;;;;;;;9.20;6.10;;;13.30;99.90;;;;;;5057906;28;20448;-81
2023/10/01 05:23:43;;;;;;;15.23;6.43;;;13.30;99.90;;;;;;5044277;28;20506;-81
2023/10/01 05:26:09;;;;;;;11.47;6.73;;;13.30;99.90;;;;;;5057378;28;20440;-81
2023/10/01 05:28:36;;;;;;;11.83;6.10;;;13.30;99.90;;;;;;5058270;28;20495;-80
2023/10/01 05:31:12;;;;;;;12.93;7.07;;;13.30;99.90;;;;;;5058401;28;20456;-80
2023/10/01 05:33:39;;;;;;;15.63;7.20;;;13.40;99.90;;;;;;5043822;28;20460;-81
2023/10/01 05:36:05;;;;;;;13.97;7.20;;;13.30;99.90;;;;;;5054001;28;20432;-81
2023/10/01 05:38:35;;;;;;;15.20;7.10;;;13.40;99.90;;;;;;5059531;28;20495;-80
2023/10/01 05:41:04;;;;;;;12.57;7.10;;;13.40;99.90;;;;;;5060232;28;20484;-81
2023/10/01 05:43:35;;;;;;;16.23;7.40;;;13.40;99.90;;;;;;5058816;28;20968;-80
2023/10/01 05:46:01;;;;;;;15.40;7.90;;;13.40;99.90;;;;;;5042245;28;20853;-81
2023/10/01 05:48:30;;;;;;;14.80;7.33;;;13.40;99.90;;;;;;5057819;28;20460;-81
2023/10/01 05:50:58;;;;;;;13.47;6.30;;;13.50;99.90;;;;;;5057924;28;20439;-82
2023/10/01 05:53:24;;;;;;;13.90;6.67;;;13.50;99.90;;;;;;5058598;28;20460;-81
2023/10/01 05:55:50;;;;;;;15.70;7.70;;;13.60;99.90;;;;;;5057757;28;20443;-80
2023/10/01 05:58:19;;;;;;;12.43;7.30;;;13.60;99.90;;;;;;5039754;28;20216;-80
2023/10/01 06:00:56;;;;;;;13.63;7.23;;;13.70;57.20;;;;;;5057537;28;20196;-79
2023/10/01 06:03:24;;;;;;;15.83;7.40;;;13.80;1.00;;;;;;5056499;28;20440;-79
2023/10/01 06:05:50;;;;;;;11.10;6.30;;;13.90;1.00;;;;;;5053453;28;20521;-79
2023/10/01 06:08:24;;;;;;;12.83;6.90;;;14.00;1.00;;;;;;5055981;28;20458;-79
2023/10/01 06:11:07;;;;;;;15.43;7.63;;;14.20;99.90;;;;;;5056366;28;20385;-80
2023/10/01 06:13:35;;;;;;;20.10;9.03;;;14.40;1.00;;;;;;5056389;28;20419;-80
2023/10/01 06:16:11;;;;;;;12.40;7.03;;;14.80;99.90;;;;;;5052459;28;20498;-79
2023/10/01 06:18:49;;;;;;;12.33;7.27;;;15.00;99.90;;;;;;5057421;28;20850;-78
2023/10/01 06:21:37;;;;;;;12.97;6.70;;;15.10;99.90;;;;;;5034366;28;20439;-79
2023/10/01 06:24:10;;;;;;;12.67;6.47;;;15.30;99.90;;;;;;5055602;28;20463;-81
2023/10/01 06:26:57;;;;;;;13.80;6.70;;;16.20;1.00;;;;;;5056391;28;20428;-80
2023/10/01 06:29:23;;;;;;;14.40;6.77;;;19.00;99.90;;;;;;5054126;28;20617;-81
2023/10/01 06:31:48;;;;;;;11.73;7.63;;;21.90;1.00;;;;;;5055933;28;20546;-82
2023/10/01 06:34:24;;;;;;;13.77;7.03;;;24.10;99.90;;;;;;5055435;28;20539;-82
2023/10/01 06:36:51;;;;;;;11.10;7.13;;;26.10;99.90;;;;;;5055540;28;20185;-82
2023/10/01 06:39:23;;;;;;;13.87;7.30;;;27.60;99.90;;;;;;5053517;28;20976;-80
2023/10/01 06:41:48;;;;;;;11.63;7.07;;;29.10;99.90;;;;;;5046558;28;20446;-82
2023/10/01 06:44:14;;;;;;;10.90;6.67;;;30.50;1.00;;;;;;5044444;28;20539;-82
2023/10/01 06:46:40;;;;;;;13.30;7.50;;;31.60;99.90;;;;;;5054986;28;20660;-81
2023/10/01 06:49:08;;;;;;;11.37;6.50;;;32.50;99.90;;;;;;5054042;28;20229;-81
2023/10/01 06:51:43;;;;;;;11.70;7.27;;;33.40;1.00;;;;;;5046543;28;20481;-83
2023/10/01 06:54:12;;;;;;;9.80;6.40;;;34.30;1.00;;;;;;5055259;28;20470;-83
2023/10/01 06:56:44;;;;;;;10.87;6.63;;;35.20;99.90;;;;;;5059431;28;20440;-82
2023/10/01 06:59:13;;;;;;;13.43;6.90;;;35.80;99.90;;;;;;5059938;28;20528;-80
2023/10/01 07:01:46;;;;;;;12.07;7.23;;;36.40;99.90;;;;;;5045988;28;20783;-80
2023/10/01 07:04:23;;;;;;;9.30;7.10;;;37.20;99.90;;;;;;5052254;28;20577;-81
2023/10/01 07:06:50;;;;;;;11.70;7.00;;;37.70;99.90;;;;;;5036426;28;20443;-80
2023/10/01 07:09:32;;;;;;;11.23;7.10;;;38.40;99.90;;;;;;5032150;28;20471;-80
2023/10/01 07:11:59;;;;;;;8.97;6.73;;;38.80;99.90;;;;;;5038021;28;20547;-80
2023/10/01 07:14:43;;;;;;;10.90;7.23;;;39.50;99.90;;;;;;5045792;28;20464;-80
2023/10/01 07:17:15;;;;;;;10.23;7.47;;;40.00;99.90;;;;;;5052308;28;21056;-81
2023/10/01 07:19:42;;;;;;;11.53;7.10;;;40.60;1.00;;;;;;5050773;28;20456;-81
2023/10/01 07:22:09;;;;;;;9.90;7.93;;;41.10;99.90;;;;;;5053601;28;20444;-80
2023/10/01 07:24:36;;;;;;;12.50;7.57;;;41.20;99.90;;;;;;5053507;28;20439;-81
2023/10/01 07:27:11;;;;;;;10.33;7.00;;;41.70;99.90;;;;;;5052024;28;20918;-78
2023/10/01 07:29:41;;;;;;;9.63;6.83;;;42.30;99.90;;;;;;5051181;28;21042;-80
2023/10/01 07:32:08;;;;;;;10.80;7.00;;;42.70;99.90;;;;;;5052934;28;20455;-80
2023/10/01 07:34:35;;;;;;;9.47;6.70;;;43.00;99.90;;;;;;5049792;28;20444;-80
2023/10/01 07:37:04;;;;;;;9.27;6.97;;;43.10;99.90;;;;;;5046993;28;20424;-80
2023/10/01 07:39:37;;;;;;;10.00;7.20;;;43.60;99.90;;;;;;5050809;28;20478;-81
2023/10/01 07:42:10;;;;;;;11.03;6.57;;;43.60;99.90;;;;;;5051449;28;20463;-80
2023/10/01 07:44:36;;;;;;;10.23;7.37;;;43.70;99.90;;;;;;5039712;28;20432;-80
2023/10/01 07:47:03;;;;;;;10.80;6.67;;;43.80;99.90;;;;;;5052812;28;20556;-80
2023/10/01 07:49:47;;;;;;;6.73;5.77;;;44.00;99.90;;;;;;5049312;28;20721;-80
2023/10/01 07:52:17;;;;;;;12.63;7.27;;;44.50;99.90;;;;;;5051824;28;20436;-80
2023/10/01 07:54:47;;;;;;;9.20;7.17;;;44.60;99.90;;;;;;5052409;28;20440;-81
2023/10/01 07:57:15;;;;;;;8.80;6.43;;;45.20;99.90;;;;;;5039042;28;21010;-80
2023/10/01 07:59:43;;;;;;;9.50;7.50;;;45.30;99.90;;;;;;5053503;28;20464;-81
2023/10/01 08:07:15;;;;;;;9.40;7.43;;;45.80;99.90;;;;;;5050304;28;20502;-80
2023/10/01 08:09:46;;;;;;;12.40;7.20;;;45.90;99.90;;;;;;5054429;28;20956;-80
2023/10/01 08:12:13;;;;;;;10.37;7.23;;;46.10;99.90;;;;;;5051096;28;20428;-80
2023/10/01 08:14:40;;;;;;;8.80;6.70;;;46.40;99.90;;;;;;5054462;28;20416;-81
2023/10/01 08:17:08;;;;;;;9.10;6.70;;;46.20;99.90;;;;;;5055930;28;20423;-79
2023/10/01 08:19:54;;;;;;;9.27;7.63;;;46.50;99.90;;;;;;5039455;28;20471;-80
2023/10/01 08:22:43;;;;;;;9.70;7.27;;;46.60;99.90;;;;;;5050682;28;20906;-80
2023/10/01 08:25:09;;;;;;;10.53;7.50;;;46.60;99.90;;;;;;5052496;28;20448;-80
2023/10/01 08:28:03;;;;;;;9.90;7.57;;;46.50;99.90;;;;;;5057311;28;20444;-81
2023/10/01 08:30:38;;;;;;;8.20;6.90;;;46.60;99.90;;;;;;5051939;28;20750;-81
2023/10/01 08:33:18;;;;;;;11.87;6.97;;;46.40;99.90;;;;;;5052698;28;20509;-81
2023/10/01 08:35:56;;;;;;;8.90;7.00;;;46.40;99.90;;;;;;5047491;28;20428;-81
2023/10/01 08:38:29;;;;;;;9.37;7.20;;;46.40;99.90;;;;;;5054541;28;20444;-79
2023/10/01 08:41:02;;;;;;;10.13;7.80;;;46.50;99.90;;;;;;5049132;28;20419;-80
2023/10/01 08:43:31;;;;;;;9.63;7.20;;;46.30;99.90;;;;;;5055481;28;20462;-81
2023/10/01 08:46:15;;;;;;;11.27;8.50;;;46.30;99.90;;;;;;5050073;28;20449;-81
2023/10/01 08:48:43;;;;;;;10.80;8.17;;;46.40;99.90;;;;;;5057117;28;20933;-81
2023/10/01 08:51:11;;;;;;;11.97;7.80;;;46.40;99.90;;;;;;5056024;28;20434;-80
2023/10/01 08:53:41;;;;;;;10.90;8.50;;;46.70;99.90;;;;;;5056065;28;20490;-81
2023/10/01 08:56:08;;;;;;;10.37;7.80;;;46.60;99.90;;;;;;5056794;28;20519;-81
2023/10/01 08:58:48;;;;;;;9.73;7.70;;;46.70;99.90;;;;;;5051127;28;20550;-82
2023/10/01 09:01:21;;;;;;;8.77;7.50;;;46.80;99.90;;;;;;5043795;28;20450;-81
2023/10/01 09:03:51;;;;;;;8.97;7.77;;;46.40;99.90;;;;;;5050718;28;20518;-81
2023/10/01 09:06:28;;;;;;;9.37;7.10;;;46.40;99.90;;;;;;5054864;28;20589;-80
2023/10/01 09:08:55;;;;;;;8.93;8.03;;;46.40;99.90;;;;;;5054088;28;20497;-79
2023/10/01 09:11:42;;;;;;;8.97;7.83;;;45.80;99.90;;;;;;5045498;28;20452;-81
2023/10/01 09:14:25;;;;;;;10.00;7.80;;;45.60;99.90;;;;;;5055018;28;20523;-80
2023/10/01 09:16:57;;;;;;;12.07;8.20;;;45.60;99.90;;;;;;5055095;28;20442;-81
2023/10/01 09:19:31;;;;;;;11.70;8.33;;;45.60;99.90;;;;;;5033402;28;20533;-80
2023/10/01 09:22:10;;;;;;;9.70;8.07;;;45.90;99.90;;;;;;5054980;28;20515;-79
2023/10/01 09:24:39;;;;;;;8.90;7.10;;;46.50;99.90;;;;;;5052703;28;21028;-80
2023/10/01 09:27:09;;;;;;;10.33;7.93;;;46.80;99.90;;;;;;5051266;28;20432;-81
2023/10/01 09:29:45;;;;;;;9.77;7.73;;;46.50;99.90;;;;;;5053408;28;20439;-80
2023/10/01 09:32:13;;;;;;;14.20;8.97;;;46.80;99.90;;;;;;5054375;28;20448;-81
2023/10/01 09:34:59;;;;;;;9.37;7.70;;;46.90;99.90;;;;;;5050950;28;20951;-82
2023/10/01 09:37:34;;;;;;;10.70;7.90;;;46.80;99.90;;;;;;5042859;28;20451;-80
2023/10/01 09:42:56;;;;;;;13.90;8.00;;;46.00;99.90;;;;;;5052870;28;20486;-80
2023/10/01 09:45:37;;;;;;;9.83;7.30;;;46.00;99.90;;;;;;5057184;28;20439;-80
2023/10/01 09:48:05;;;;;;;10.13;8.60;;;46.00;99.90;;;;;;5040116;28;20432;-80
2023/10/01 09:50:42;;;;;;;11.43;8.30;;;46.20;99.90;;;;;;5035873;28;20577;-80
2023/10/01 09:53:24;;;;;;;11.97;7.47;;;46.00;99.90;;;;;;5048258;28;21226;-80
2023/10/01 09:55:55;;;;;;;13.97;8.43;;;46.30;99.90;;;;;;5033149;28;20428;-80
2023/10/01 09:58:25;;;;;;;9.87;7.90;;;46.80;99.90;;;;;;5050116;28;20459;-81
2023/10/01 10:00:52;;;;;;;10.50;8.43;;;46.90;99.90;;;;;;5050128;28;20472;-80
2023/10/01 10:03:18;;;;;;;12.37;7.83;;;47.20;99.90;;;;;;5049070;28;20546;-80
2023/10/01 10:05:46;;;;;;;13.00;9.07;;;47.30;99.90;;;;;;5049042;28;20835;-79
2023/10/01 10:08:16;;;;;;;8.50;7.27;;;46.60;99.90;;;;;;5011957;28;20444;-79
2023/10/01 10:10:50;;;;;;;9.40;7.50;;;45.30;99.90;;;;;;5051522;28;20467;-79
2023/10/01 10:13:38;;;;;;;10.30;7.83;;;43.80;99.90;;;;;;5047407;28;20469;-80
2023/10/01 10:19:06;;;;;;;11.73;7.47;;;41.70;99.90;;;;;;5051688;28;20471;-79
2023/10/01 10:24:34;;;;;;;12.77;8.10;;;41.20;99.90;;;;;;5043598;28;20453;-77
2023/10/01 10:27:06;;;;;;;12.00;7.73;;;41.10;99.90;;;;;;5050429;28;20523;-81
2023/10/01 10:29:56;;;;;;;11.07;8.47;;;41.90;99.90;;;;;;5048290;28;20448;-81
2023/10/01 10:32:28;;;;;;;10.00;8.00;;;42.50;99.90;;;;;;5042677;28;20448;-80
2023/10/01 10:35:03;;;;;;;10.00;8.10;;;42.30;99.90;;;;;;5041567;28;20443;-79
2023/10/01 10:37:53;;;;;;;8.90;7.50;;;42.60;99.90;;;;;;5034700;28;20497;-80
2023/10/01 10:43:01;;;;;;;11.70;8.20;;;43.20;99.90;;;;;;5034039;28;20456;-80
2023/10/01 10:45:42;;;;;;;11.17;7.63;;;43.30;99.90;;;;;;5017272;28;20444;-79
2023/10/01 10:48:08;;;;;;;11.30;8.73;;;43.30;99.90;;;;;;5040572;28;20516;-79
2023/10/01 10:50:53;;;;;;;10.50;8.10;;;43.40;99.90;;;;;;5024079;28;21021;-80
2023/10/01 10:53:22;;;;;;;10.93;7.90;;;43.60;99.90;;;;;;5031008;28;20462;-81
2023/10/01 10:56:08;;;;;;;12.90;7.60;;;43.70;99.90;;;;;;5053735;28;21087;-80
2023/10/01 10:58:41;;;;;;;14.03;9.13;;;43.40;99.90;;;;;;5056660;28;20668;-80
2023/10/01 11:01:20;;;;;;;9.60;7.73;;;43.40;99.90;;;;;;5054719;28;20476;-81
2023/10/01 11:03:56;;;;;;;15.27;8.80;;;43.60;99.90;;;;;;5022663;28;20479;-80
2023/10/01 11:06:39;;;;;;;10.10;7.30;;;43.70;99.90;;;;;;5055680;28;20549;-80
2023/10/01 11:09:22;;;;;;;9.17;7.57;;;43.40;99.90;;;;;;5053087;28;20961;-79
2023/10/01 11:11:48;;;;;;;11.30;8.63;;;43.00;99.90;;;;;;5053794;28;20515;-79
2023/10/01 11:14:16;;;;;;;11.00;8.70;;;42.90;99.90;;;;;;5053851;28;20933;-81
2023/10/01 11:16:44;;;;;;;11.10;8.10;;;42.80;99.90;;;;;;5054080;28;20190;-80
2023/10/01 11:19:17;;;;;;;9.73;7.30;;;42.50;99.90;;;;;;5052588;28;20463;-80
2023/10/01 11:21:58;;;;;;;10.93;8.50;;;42.50;99.90;;;;;;5053964;28;20431;-80
2023/10/01 11:24:32;;;;;;;10.80;8.00;;;42.60;99.90;;;;;;5032975;28;20499;-79
2023/10/01 11:27:20;;;;;;;13.73;8.73;;;42.60;99.90;;;;;;5058454;28;20436;-80
2023/10/01 11:30:12;;;;;;;13.37;8.17;;;42.70;99.90;;;;;;5052859;28;20817;-79
2023/10/01 11:35:59;;;;;;;10.07;7.93;;;42.50;99.90;;;;;;5053682;28;20416;-80
2023/10/01 11:38:28;;;;;;;12.37;8.97;;;42.30;99.90;;;;;;5053686;28;20424;-80
2023/10/01 11:41:13;;;;;;;10.00;7.37;;;41.80;99.90;;;;;;5037117;28;20416;-80
2023/10/01 11:43:58;;;;;;;9.80;7.70;;;41.90;99.90;;;;;;5037903;28;20993;-82
2023/10/01 11:46:57;;;;;;;13.73;10.30;;;42.00;99.90;;;;;;5056330;28;20436;-81
2023/10/01 11:49:34;;;;;;;12.50;9.57;;;41.80;99.90;;;;;;5055479;28;20886;-81
2023/10/01 11:52:21;;;;;;;11.70;8.30;;;42.00;99.90;;;;;;5056433;28;20424;-81
2023/10/01 11:54:53;;;;;;;11.80;9.23;;;42.00;99.90;;;;;;5047806;28;20420;-81
2023/10/01 11:57:23;;;;;;;13.37;9.90;;;42.00;99.90;;;;;;5052871;28;20887;-79
2023/10/01 11:59:56;;;;;;;11.63;9.10;;;41.60;99.90;;;;;;5055382;28;20884;-79
2023/10/01 12:02:31;;;;;;;13.10;9.80;;;41.50;99.90;;;;;;5053288;28;20448;-81
2023/10/01 12:04:59;;;;;;;14.03;8.60;;;41.50;99.90;;;;;;5052950;28;20530;-80
2023/10/01 12:07:32;;;;;;;13.27;9.03;;;41.40;99.90;;;;;;5056227;28;20511;-80
2023/10/01 12:09:59;;;;;;;12.43;9.47;;;41.10;99.90;;;;;;5055993;28;20440;-80
2023/10/01 12:12:27;;;;;;;13.10;9.10;;;41.10;99.90;;;;;;5054391;28;20487;-80
2023/10/01 12:14:56;;;;;;;12.53;9.40;;;41.30;99.90;;;;;;5055960;28;20435;-80
2023/10/01 12:17:24;;;;;;;12.40;9.23;;;41.30;99.90;;;;;;5055024;28;20520;-80
2023/10/01 12:20:00;;;;;;;15.20;10.37;;;40.90;99.90;;;;;;5055793;28;20488;-79
2023/10/01 12:22:28;;;;;;;13.73;9.43;;;40.40;99.90;;;;;;5038278;28;20443;-80
2023/10/01 12:24:59;;;;;;;13.50;9.77;;;40.50;99.90;;;;;;5055152;28;20432;-81
2023/10/01 12:27:43;;;;;;;12.10;8.63;;;40.60;99.90;;;;;;5054262;28;20444;-81
2023/10/01 12:30:27;;;;;;;12.40;9.40;;;40.40;99.90;;;;;;5049903;28;20943;-81
2023/10/01 12:33:00;;;;;;;13.47;9.33;;;40.30;99.90;;;;;;5054333;28;21025;-79
2023/10/01 12:35:29;;;;;;;15.57;10.97;;;40.20;99.90;;;;;;5044324;28;20471;-80
2023/10/01 12:40:40;;;;;;;13.17;9.43;;;39.90;99.90;;;;;;5051698;28;20494;-79
2023/10/01 12:45:51;;;;;;;14.70;10.77;;;39.70;99.90;;;;;;5044713;28;20446;-77
2023/10/01 12:48:20;;;;;;;12.90;9.40;;;39.10;99.90;;;;;;5050104;28;20432;-78
2023/10/01 12:50:59;;;;;;;12.53;9.70;;;39.00;99.90;;;;;;5051489;28;20408;-78
2023/10/01 12:53:34;;;;;;;13.30;9.47;;;38.80;99.90;;;;;;5048817;28;20521;-78
2023/10/01 12:56:02;;;;;;;12.73;9.60;;;38.60;99.90;;;;;;5050859;28;20434;-80
2023/10/01 12:58:39;;;;;;;16.70;10.90;;;38.80;99.90;;;;;;5032755;28;20452;-79
2023/10/01 13:01:31;;;;;;;16.57;10.60;;;38.60;99.90;;;;;;5047976;28;20448;-80
2023/10/01 13:04:16;;;;;;;15.50;10.57;;;38.20;99.90;;;;;;5051205;28;20444;-80
2023/10/01 13:06:43;;;;;;;16.63;10.97;;;38.20;99.90;;;;;;5050292;28;20475;-80
2023/10/01 13:09:34;;;;;;;13.53;10.00;;;37.70;99.90;;;;;;5031150;28;20433;-79
2023/10/01 13:11:59;;;;;;;15.03;10.53;;;37.50;99.90;;;;;;5048861;28;20443;-78
2023/10/01 13:14:29;;;;;;;11.90;9.70;;;37.60;99.90;;;;;;5045391;28;20603;-79
2023/10/01 13:17:00;;;;;;;14.47;10.10;;;37.60;99.90;;;;;;5042618;28;20448;-78
2023/10/01 13:19:33;;;;;;;14.73;9.73;;;37.60;99.90;;;;;;5043564;28;20458;-80
2023/10/01 13:22:04;;;;;;;14.20;10.13;;;37.60;99.90;;;;;;5040302;28;20445;-78
2023/10/01 13:24:31;;;;;;;19.80;11.27;;;37.40;99.90;;;;;;5051459;28;21170;-80
2023/10/01 13:27:10;;;;;;;16.57;10.83;;;37.10;99.90;;;;;;5042452;28;20512;-79
2023/10/01 13:29:39;;;;;;;14.80;10.27;;;37.00;99.90;;;;;;5050408;28;20440;-80
2023/10/01 13:32:15;;;;;;;14.40;10.63;;;36.70;99.90;;;;;;5052982;28;20431;-80
2023/10/01 13:34:49;;;;;;;14.77;10.07;;;36.40;99.90;;;;;;5051687;28;20558;-79
2023/10/01 14:10:20;;;;;;;13.97;9.90;;;34.70;99.90;;;;;;5052350;28;20526;-81
2023/10/01 14:13:00;;;;;;;13.80;10.20;;;34.60;99.90;;;;;;5050941;28;20973;-80
2023/10/01 14:15:26;;;;;;;15.87;9.87;;;34.60;99.90;;;;;;5031309;28;20447;-79
2023/10/01 14:17:54;;;;;;;16.50;9.50;;;34.50;99.90;;;;;;5047619;28;21057;-79
2023/10/01 14:23:31;;;;;;;11.97;8.63;;;34.50;99.90;;;;;;5040799;28;21028;-80